sensor_id;sensor_type;location;lat;lon;timestamp;temperature;humidity
15690;DHT22;7945;48.816;11.506;2022-07-25T00:00:22;24.70;75.40
15690;DHT22;7945;48.816;11.506;2022-07-25T00:02:49;24.60;75.40
15690;DHT22;7945;48.816;11.506;2022-07-25T00:05:16;24.60;75.50
15690;DHT22;7945;48.816;11.506;2022-07-25T00:07:44;24.60;75.60
15690;DHT22;7945;48.816;11.506;2022-07-25T00:10:12;24.60;75.60
15690;DHT22;7945;48.816;11.506;2022-07-25T00:12:39;24.60;75.70
15690;DHT22;7945;48.816;11.506;2022-07-25T00:15:08;24.50;75.70
15690;DHT22;7945;48.816;11.506;2022-07-25T00:17:36;24.50;75.50
15690;DHT22;7945;48.816;11.506;2022-07-25T00:20:05;24.40;75.60
15690;DHT22;7945;48.816;11.506;2022-07-25T00:22:33;24.40;75.70
15690;DHT22;7945;48.816;11.506;2022-07-25T00:25:01;24.30;76.00
15690;DHT22;7945;48.816;11.506;2022-07-25T00:27:29;24.30;76.00
15690;DHT22;7945;48.816;11.506;2022-07-25T00:29:56;24.20;76.20
15690;DHT22;7945;48.816;11.506;2022-07-25T00:32:24;24.30;76.40
15690;DHT22;7945;48.816;11.506;2022-07-25T00:34:51;24.20;76.30
15690;DHT22;7945;48.816;11.506;2022-07-25T00:37:19;24.20;76.30
15690;DHT22;7945;48.816;11.506;2022-07-25T00:39:46;24.20;76.40
15690;DHT22;7945;48.816;11.506;2022-07-25T00:42:15;24.20;76.60
15690;DHT22;7945;48.816;11.506;2022-07-25T00:44:43;24.20;77.30
15690;DHT22;7945;48.816;11.506;2022-07-25T00:47:10;24.20;77.00
15690;DHT22;7945;48.816;11.506;2022-07-25T00:49:37;24.20;77.40
15690;DHT22;7945;48.816;11.506;2022-07-25T00:52:05;24.20;77.60
15690;DHT22;7945;48.816;11.506;2022-07-25T00:54:33;24.20;77.70
15690;DHT22;7945;48.816;11.506;2022-07-25T00:57:01;24.20;77.90
15690;DHT22;7945;48.816;11.506;2022-07-25T00:59:29;24.10;77.90
15690;DHT22;7945;48.816;11.506;2022-07-25T01:01:57;24.10;78.00
15690;DHT22;7945;48.816;11.506;2022-07-25T01:04:24;24.10;77.80
15690;DHT22;7945;48.816;11.506;2022-07-25T01:06:52;24.00;77.80
15690;DHT22;7945;48.816;11.506;2022-07-25T01:09:19;24.00;77.80
15690;DHT22;7945;48.816;11.506;2022-07-25T01:11:48;23.90;77.80
15690;DHT22;7945;48.816;11.506;2022-07-25T01:14:15;23.90;77.90
15690;DHT22;7945;48.816;11.506;2022-07-25T01:16:43;23.90;78.10
15690;DHT22;7945;48.816;11.506;2022-07-25T01:19:10;23.90;78.10
15690;DHT22;7945;48.816;11.506;2022-07-25T01:21:39;23.90;78.30
15690;DHT22;7945;48.816;11.506;2022-07-25T01:24:07;23.90;78.20
15690;DHT22;7945;48.816;11.506;2022-07-25T01:26:34;23.90;78.20
15690;DHT22;7945;48.816;11.506;2022-07-25T01:29:02;23.90;78.20
15690;DHT22;7945;48.816;11.506;2022-07-25T01:31:29;23.90;78.10
15690;DHT22;7945;48.816;11.506;2022-07-25T01:33:56;23.90;78.00
15690;DHT22;7945;48.816;11.506;2022-07-25T01:36:22;23.90;78.10
15690;DHT22;7945;48.816;11.506;2022-07-25T01:38:51;23.90;78.40
15690;DHT22;7945;48.816;11.506;2022-07-25T01:41:17;23.90;78.30
15690;DHT22;7945;48.816;11.506;2022-07-25T01:43:44;23.90;78.30
15690;DHT22;7945;48.816;11.506;2022-07-25T01:46:11;23.90;79.10
15690;DHT22;7945;48.816;11.506;2022-07-25T01:48:39;23.80;78.30
15690;DHT22;7945;48.816;11.506;2022-07-25T01:51:06;23.80;78.30
15690;DHT22;7945;48.816;11.506;2022-07-25T01:53:35;23.80;78.40
15690;DHT22;7945;48.816;11.506;2022-07-25T01:56:03;23.80;78.60
15690;DHT22;7945;48.816;11.506;2022-07-25T01:58:30;23.70;78.50
15690;DHT22;7945;48.816;11.506;2022-07-25T02:00:57;23.70;78.70
15690;DHT22;7945;48.816;11.506;2022-07-25T02:03:24;23.90;78.90
15690;DHT22;7945;48.816;11.506;2022-07-25T02:05:59;23.70;78.80
15690;DHT22;7945;48.816;11.506;2022-07-25T02:08:27;23.70;79.00
15690;DHT22;7945;48.816;11.506;2022-07-25T02:10:54;23.60;79.00
15690;DHT22;7945;48.816;11.506;2022-07-25T02:13:24;23.60;79.20
15690;DHT22;7945;48.816;11.506;2022-07-25T02:15:51;23.50;79.30
15690;DHT22;7945;48.816;11.506;2022-07-25T02:18:18;23.50;79.50
15690;DHT22;7945;48.816;11.506;2022-07-25T02:20:45;23.50;79.30
15690;DHT22;7945;48.816;11.506;2022-07-25T02:23:12;23.50;79.30
15690;DHT22;7945;48.816;11.506;2022-07-25T02:25:39;23.50;79.30
15690;DHT22;7945;48.816;11.506;2022-07-25T02:28:06;23.50;79.40
15690;DHT22;7945;48.816;11.506;2022-07-25T02:30:35;23.50;79.90
15690;DHT22;7945;48.816;11.506;2022-07-25T02:33:02;23.50;80.30
15690;DHT22;7945;48.816;11.506;2022-07-25T02:35:29;23.40;80.50
15690;DHT22;7945;48.816;11.506;2022-07-25T02:37:56;23.40;80.60
15690;DHT22;7945;48.816;11.506;2022-07-25T02:40:24;23.30;80.70
15690;DHT22;7945;48.816;11.506;2022-07-25T02:42:51;23.30;80.60
15690;DHT22;7945;48.816;11.506;2022-07-25T02:45:18;23.20;80.70
15690;DHT22;7945;48.816;11.506;2022-07-25T02:47:47;23.20;80.80
15690;DHT22;7945;48.816;11.506;2022-07-25T02:50:15;23.20;81.20
15690;DHT22;7945;48.816;11.506;2022-07-25T02:52:43;23.20;81.10
15690;DHT22;7945;48.816;11.506;2022-07-25T02:55:10;23.20;81.50
15690;DHT22;7945;48.816;11.506;2022-07-25T02:57:37;23.10;81.60
15690;DHT22;7945;48.816;11.506;2022-07-25T03:00:06;23.10;81.60
15690;DHT22;7945;48.816;11.506;2022-07-25T03:02:34;23.10;81.40
15690;DHT22;7945;48.816;11.506;2022-07-25T03:05:05;23.00;81.30
15690;DHT22;7945;48.816;11.506;2022-07-25T03:07:33;23.00;81.40
15690;DHT22;7945;48.816;11.506;2022-07-25T03:10:00;23.00;81.70
15690;DHT22;7945;48.816;11.506;2022-07-25T03:12:27;23.00;81.80
15690;DHT22;7945;48.816;11.506;2022-07-25T03:14:55;22.90;81.80
15690;DHT22;7945;48.816;11.506;2022-07-25T03:17:22;22.90;81.90
15690;DHT22;7945;48.816;11.506;2022-07-25T03:19:49;22.80;82.10
15690;DHT22;7945;48.816;11.506;2022-07-25T03:22:17;22.70;82.20
15690;DHT22;7945;48.816;11.506;2022-07-25T03:24:44;22.70;82.40
15690;DHT22;7945;48.816;11.506;2022-07-25T03:27:11;22.70;82.60
15690;DHT22;7945;48.816;11.506;2022-07-25T03:29:39;22.60;82.50
15690;DHT22;7945;48.816;11.506;2022-07-25T03:32:06;22.60;82.50
15690;DHT22;7945;48.816;11.506;2022-07-25T03:34:34;22.70;82.80
15690;DHT22;7945;48.816;11.506;2022-07-25T03:37:01;22.70;82.70
15690;DHT22;7945;48.816;11.506;2022-07-25T03:39:30;22.60;82.80
15690;DHT22;7945;48.816;11.506;2022-07-25T03:41:58;22.60;82.90
15690;DHT22;7945;48.816;11.506;2022-07-25T03:44:25;22.60;83.00
15690;DHT22;7945;48.816;11.506;2022-07-25T03:46:52;22.60;83.10
15690;DHT22;7945;48.816;11.506;2022-07-25T03:49:18;22.60;83.10
15690;DHT22;7945;48.816;11.506;2022-07-25T03:51:45;22.60;83.10
15690;DHT22;7945;48.816;11.506;2022-07-25T03:54:12;22.60;83.70
15690;DHT22;7945;48.816;11.506;2022-07-25T03:56:43;22.60;83.10
15690;DHT22;7945;48.816;11.506;2022-07-25T03:59:12;22.60;83.10
15690;DHT22;7945;48.816;11.506;2022-07-25T04:01:41;22.60;83.20
15690;DHT22;7945;48.816;11.506;2022-07-25T04:04:09;22.60;83.40
15690;DHT22;7945;48.816;11.506;2022-07-25T04:06:37;22.60;83.30
15690;DHT22;7945;48.816;11.506;2022-07-25T04:09:05;22.60;83.40
15690;DHT22;7945;48.816;11.506;2022-07-25T04:11:33;22.60;83.40
15690;DHT22;7945;48.816;11.506;2022-07-25T04:14:02;22.60;83.60
15690;DHT22;7945;48.816;11.506;2022-07-25T04:16:29;22.60;83.70
15690;DHT22;7945;48.816;11.506;2022-07-25T04:18:57;22.70;83.80
15690;DHT22;7945;48.816;11.506;2022-07-25T04:21:24;22.70;83.80
15690;DHT22;7945;48.816;11.506;2022-07-25T04:23:52;22.70;83.60
15690;DHT22;7945;48.816;11.506;2022-07-25T04:26:19;22.80;83.70
15690;DHT22;7945;48.816;11.506;2022-07-25T04:28:46;22.80;83.70
15690;DHT22;7945;48.816;11.506;2022-07-25T04:31:14;22.90;83.50
15690;DHT22;7945;48.816;11.506;2022-07-25T04:33:41;22.90;84.20
15690;DHT22;7945;48.816;11.506;2022-07-25T04:36:09;23.00;83.20
15690;DHT22;7945;48.816;11.506;2022-07-25T04:38:36;23.00;83.10
15690;DHT22;7945;48.816;11.506;2022-07-25T04:41:03;23.10;83.10
15690;DHT22;7945;48.816;11.506;2022-07-25T04:43:30;23.20;83.20
15690;DHT22;7945;48.816;11.506;2022-07-25T04:45:57;23.50;82.40
15690;DHT22;7945;48.816;11.506;2022-07-25T04:48:25;24.00;81.20
15690;DHT22;7945;48.816;11.506;2022-07-25T04:50:53;24.40;79.90
15690;DHT22;7945;48.816;11.506;2022-07-25T04:53:20;24.50;79.70
15690;DHT22;7945;48.816;11.506;2022-07-25T04:55:48;24.80;79.10
15690;DHT22;7945;48.816;11.506;2022-07-25T04:58:15;25.40;78.10
15690;DHT22;7945;48.816;11.506;2022-07-25T05:00:42;26.40;75.50
15690;DHT22;7945;48.816;11.506;2022-07-25T05:03:09;27.30;73.20
15690;DHT22;7945;48.816;11.506;2022-07-25T05:05:37;28.00;71.40
15690;DHT22;7945;48.816;11.506;2022-07-25T05:08:05;28.80;69.40
15690;DHT22;7945;48.816;11.506;2022-07-25T05:10:32;29.70;67.40
15690;DHT22;7945;48.816;11.506;2022-07-25T05:12:59;30.60;65.60
15690;DHT22;7945;48.816;11.506;2022-07-25T05:15:26;31.20;63.60
15690;DHT22;7945;48.816;11.506;2022-07-25T05:17:54;31.70;62.30
15690;DHT22;7945;48.816;11.506;2022-07-25T05:20:21;32.10;61.60
15690;DHT22;7945;48.816;11.506;2022-07-25T05:22:50;32.40;60.90
15690;DHT22;7945;48.816;11.506;2022-07-25T05:25:17;32.70;60.00
15690;DHT22;7945;48.816;11.506;2022-07-25T05:27:44;33.10;59.00
15690;DHT22;7945;48.816;11.506;2022-07-25T05:30:13;33.50;58.20
15690;DHT22;7945;48.816;11.506;2022-07-25T05:32:40;33.80;57.40
15690;DHT22;7945;48.816;11.506;2022-07-25T05:35:08;33.90;56.60
15690;DHT22;7945;48.816;11.506;2022-07-25T05:37:36;33.80;57.50
15690;DHT22;7945;48.816;11.506;2022-07-25T05:40:06;33.90;56.70
15690;DHT22;7945;48.816;11.506;2022-07-25T05:42:33;33.60;56.90
15690;DHT22;7945;48.816;11.506;2022-07-25T05:45:01;32.40;57.30
15690;DHT22;7945;48.816;11.506;2022-07-25T05:47:29;31.40;59.80
15690;DHT22;7945;48.816;11.506;2022-07-25T05:49:56;31.40;60.50
15690;DHT22;7945;48.816;11.506;2022-07-25T05:52:24;31.60;59.60
15690;DHT22;7945;48.816;11.506;2022-07-25T05:54:51;31.80;59.60
15690;DHT22;7945;48.816;11.506;2022-07-25T05:57:20;31.90;59.30
15690;DHT22;7945;48.816;11.506;2022-07-25T05:59:47;32.20;59.10
15690;DHT22;7945;48.816;11.506;2022-07-25T06:02:14;32.40;58.80
15690;DHT22;7945;48.816;11.506;2022-07-25T06:04:41;32.30;58.40
15690;DHT22;7945;48.816;11.506;2022-07-25T06:07:08;31.80;59.40
15690;DHT22;7945;48.816;11.506;2022-07-25T06:09:35;31.10;60.50
15690;DHT22;7945;48.816;11.506;2022-07-25T06:14:36;30.10;61.90
15690;DHT22;7945;48.816;11.506;2022-07-25T06:17:03;29.60;64.20
15690;DHT22;7945;48.816;11.506;2022-07-25T06:19:30;29.20;64.80
15690;DHT22;7945;48.816;11.506;2022-07-25T06:21:57;28.90;65.40
15690;DHT22;7945;48.816;11.506;2022-07-25T06:24:24;28.70;65.70
15690;DHT22;7945;48.816;11.506;2022-07-25T06:26:51;28.50;66.20
15690;DHT22;7945;48.816;11.506;2022-07-25T06:29:17;28.30;67.10
15690;DHT22;7945;48.816;11.506;2022-07-25T06:31:46;28.00;67.80
15690;DHT22;7945;48.816;11.506;2022-07-25T06:34:13;27.80;68.70
15690;DHT22;7945;48.816;11.506;2022-07-25T06:36:40;27.70;69.00
15690;DHT22;7945;48.816;11.506;2022-07-25T06:39:07;27.60;69.00
15690;DHT22;7945;48.816;11.506;2022-07-25T06:41:34;27.60;69.30
15690;DHT22;7945;48.816;11.506;2022-07-25T06:44:02;27.50;69.80
15690;DHT22;7945;48.816;11.506;2022-07-25T06:46:29;27.60;69.70
15690;DHT22;7945;48.816;11.506;2022-07-25T06:48:58;27.50;69.60
15690;DHT22;7945;48.816;11.506;2022-07-25T06:51:25;27.50;69.60
15690;DHT22;7945;48.816;11.506;2022-07-25T06:53:52;27.50;69.80
15690;DHT22;7945;48.816;11.506;2022-07-25T06:56:19;27.40;69.90
15690;DHT22;7945;48.816;11.506;2022-07-25T06:58:46;27.30;70.10
15690;DHT22;7945;48.816;11.506;2022-07-25T07:01:13;27.20;70.60
15690;DHT22;7945;48.816;11.506;2022-07-25T07:03:39;27.20;70.80
15690;DHT22;7945;48.816;11.506;2022-07-25T07:06:08;27.20;70.90
15690;DHT22;7945;48.816;11.506;2022-07-25T07:08:36;27.20;71.10
15690;DHT22;7945;48.816;11.506;2022-07-25T07:11:03;27.20;71.60
15690;DHT22;7945;48.816;11.506;2022-07-25T07:13:31;27.20;71.20
15690;DHT22;7945;48.816;11.506;2022-07-25T07:15:58;27.20;71.50
15690;DHT22;7945;48.816;11.506;2022-07-25T07:18:25;27.20;71.50
15690;DHT22;7945;48.816;11.506;2022-07-25T07:20:53;27.20;71.70
15690;DHT22;7945;48.816;11.506;2022-07-25T07:23:21;27.10;72.60
15690;DHT22;7945;48.816;11.506;2022-07-25T07:25:48;27.20;71.90
15690;DHT22;7945;48.816;11.506;2022-07-25T07:28:15;27.30;72.20
15690;DHT22;7945;48.816;11.506;2022-07-25T07:30:42;27.50;71.70
15690;DHT22;7945;48.816;11.506;2022-07-25T07:33:09;27.60;71.50
15690;DHT22;7945;48.816;11.506;2022-07-25T07:35:36;27.70;71.50
15690;DHT22;7945;48.816;11.506;2022-07-25T07:38:03;27.80;71.30
15690;DHT22;7945;48.816;11.506;2022-07-25T07:40:32;27.70;71.40
15690;DHT22;7945;48.816;11.506;2022-07-25T07:42:59;27.70;72.50
15690;DHT22;7945;48.816;11.506;2022-07-25T07:45:28;27.60;72.60
15690;DHT22;7945;48.816;11.506;2022-07-25T07:47:56;27.60;71.80
15690;DHT22;7945;48.816;11.506;2022-07-25T07:50:25;27.60;72.10
15690;DHT22;7945;48.816;11.506;2022-07-25T07:52:53;27.70;72.50
15690;DHT22;7945;48.816;11.506;2022-07-25T07:55:21;27.70;72.10
15690;DHT22;7945;48.816;11.506;2022-07-25T07:58:07;27.70;72.40
15690;DHT22;7945;48.816;11.506;2022-07-25T08:00:35;27.90;72.30
15690;DHT22;7945;48.816;11.506;2022-07-25T08:03:04;28.00;72.00
15690;DHT22;7945;48.816;11.506;2022-07-25T08:05:34;28.00;72.40
15690;DHT22;7945;48.816;11.506;2022-07-25T08:08:02;28.00;72.30
15690;DHT22;7945;48.816;11.506;2022-07-25T08:10:30;28.00;72.30
15690;DHT22;7945;48.816;11.506;2022-07-25T08:12:58;28.10;72.40
15690;DHT22;7945;48.816;11.506;2022-07-25T08:15:27;28.20;71.90
15690;DHT22;7945;48.816;11.506;2022-07-25T08:17:54;28.30;72.20
15690;DHT22;7945;48.816;11.506;2022-07-25T08:20:21;28.40;72.20
15690;DHT22;7945;48.816;11.506;2022-07-25T08:22:48;28.30;72.80
15690;DHT22;7945;48.816;11.506;2022-07-25T08:25:18;28.30;72.90
15690;DHT22;7945;48.816;11.506;2022-07-25T08:27:45;28.40;72.40
15690;DHT22;7945;48.816;11.506;2022-07-25T08:30:13;28.40;72.40
15690;DHT22;7945;48.816;11.506;2022-07-25T08:32:50;28.30;72.60
15690;DHT22;7945;48.816;11.506;2022-07-25T08:35:18;28.40;72.60
15690;DHT22;7945;48.816;11.506;2022-07-25T08:37:46;28.40;72.40
15690;DHT22;7945;48.816;11.506;2022-07-25T08:40:14;28.50;72.30
15690;DHT22;7945;48.816;11.506;2022-07-25T08:42:41;28.60;72.60
15690;DHT22;7945;48.816;11.506;2022-07-25T08:45:10;28.60;72.70
15690;DHT22;7945;48.816;11.506;2022-07-25T08:47:39;28.70;72.20
15690;DHT22;7945;48.816;11.506;2022-07-25T08:50:09;28.70;72.30
15690;DHT22;7945;48.816;11.506;2022-07-25T08:52:37;28.80;72.20
15690;DHT22;7945;48.816;11.506;2022-07-25T08:55:05;28.90;72.10
15690;DHT22;7945;48.816;11.506;2022-07-25T08:57:32;29.00;72.10
15690;DHT22;7945;48.816;11.506;2022-07-25T09:00:00;29.00;71.70
15690;DHT22;7945;48.816;11.506;2022-07-25T09:02:27;29.10;71.60
15690;DHT22;7945;48.816;11.506;2022-07-25T09:04:56;29.20;71.90
15690;DHT22;7945;48.816;11.506;2022-07-25T09:07:34;29.30;71.40
15690;DHT22;7945;48.816;11.506;2022-07-25T09:10:12;29.30;71.30
15690;DHT22;7945;48.816;11.506;2022-07-25T09:12:40;29.40;71.00
15690;DHT22;7945;48.816;11.506;2022-07-25T09:15:08;29.50;71.20
15690;DHT22;7945;48.816;11.506;2022-07-25T09:17:35;29.60;70.60
15690;DHT22;7945;48.816;11.506;2022-07-25T09:20:03;29.60;70.50
15690;DHT22;7945;48.816;11.506;2022-07-25T09:22:42;29.80;70.60
15690;DHT22;7945;48.816;11.506;2022-07-25T09:25:22;29.80;70.50
15690;DHT22;7945;48.816;11.506;2022-07-25T09:27:50;29.90;70.00
15690;DHT22;7945;48.816;11.506;2022-07-25T09:30:17;29.90;69.90
15690;DHT22;7945;48.816;11.506;2022-07-25T09:32:44;30.00;69.90
15690;DHT22;7945;48.816;11.506;2022-07-25T09:35:11;30.10;69.30
15690;DHT22;7945;48.816;11.506;2022-07-25T09:37:40;30.30;69.70
15690;DHT22;7945;48.816;11.506;2022-07-25T09:40:16;30.40;68.90
15690;DHT22;7945;48.816;11.506;2022-07-25T09:42:49;30.50;68.80
15690;DHT22;7945;48.816;11.506;2022-07-25T09:45:16;30.70;68.70
15690;DHT22;7945;48.816;11.506;2022-07-25T09:47:51;30.70;68.10
15690;DHT22;7945;48.816;11.506;2022-07-25T09:50:19;30.70;68.00
15690;DHT22;7945;48.816;11.506;2022-07-25T09:52:49;30.70;67.70
15690;DHT22;7945;48.816;11.506;2022-07-25T09:55:17;31.00;67.70
15690;DHT22;7945;48.816;11.506;2022-07-25T09:57:45;31.20;66.80
15690;DHT22;7945;48.816;11.506;2022-07-25T10:00:17;31.50;66.10
15690;DHT22;7945;48.816;11.506;2022-07-25T10:02:49;31.60;66.10
15690;DHT22;7945;48.816;11.506;2022-07-25T10:05:27;31.80;65.50
15690;DHT22;7945;48.816;11.506;2022-07-25T10:07:57;31.90;65.20
15690;DHT22;7945;48.816;11.506;2022-07-25T10:10:25;32.10;64.50
15690;DHT22;7945;48.816;11.506;2022-07-25T10:13:03;32.20;64.40
15690;DHT22;7945;48.816;11.506;2022-07-25T10:15:49;32.40;63.60
15690;DHT22;7945;48.816;11.506;2022-07-25T10:18:18;32.60;63.60
15690;DHT22;7945;48.816;11.506;2022-07-25T10:20:47;32.60;63.40
15690;DHT22;7945;48.816;11.506;2022-07-25T10:23:23;32.70;63.80
15690;DHT22;7945;48.816;11.506;2022-07-25T10:26:02;32.70;63.70
15690;DHT22;7945;48.816;11.506;2022-07-25T10:28:40;32.80;63.60
15690;DHT22;7945;48.816;11.506;2022-07-25T10:31:15;32.80;63.20
15690;DHT22;7945;48.816;11.506;2022-07-25T10:33:45;32.90;63.10
15690;DHT22;7945;48.816;11.506;2022-07-25T10:36:12;32.80;62.90
15690;DHT22;7945;48.816;11.506;2022-07-25T10:38:43;32.90;61.90
15690;DHT22;7945;48.816;11.506;2022-07-25T10:41:11;32.90;62.90
15690;DHT22;7945;48.816;11.506;2022-07-25T10:43:39;33.10;62.90
15690;DHT22;7945;48.816;11.506;2022-07-25T10:46:14;33.30;62.20
15690;DHT22;7945;48.816;11.506;2022-07-25T10:48:43;33.50;61.10
15690;DHT22;7945;48.816;11.506;2022-07-25T10:51:12;33.60;61.20
15690;DHT22;7945;48.816;11.506;2022-07-25T10:53:46;33.60;59.90
15690;DHT22;7945;48.816;11.506;2022-07-25T10:56:14;33.70;59.40
15690;DHT22;7945;48.816;11.506;2022-07-25T10:58:43;33.70;58.80
15690;DHT22;7945;48.816;11.506;2022-07-25T11:01:10;33.70;58.40
15690;DHT22;7945;48.816;11.506;2022-07-25T11:03:39;33.70;58.80
15690;DHT22;7945;48.816;11.506;2022-07-25T11:06:06;33.70;58.90
15690;DHT22;7945;48.816;11.506;2022-07-25T11:08:34;33.80;59.00
15690;DHT22;7945;48.816;11.506;2022-07-25T11:11:03;33.90;59.00
15690;DHT22;7945;48.816;11.506;2022-07-25T11:13:35;34.10;58.30
15690;DHT22;7945;48.816;11.506;2022-07-25T11:16:03;34.10;58.50
15690;DHT22;7945;48.816;11.506;2022-07-25T11:18:31;34.20;58.00
15690;DHT22;7945;48.816;11.506;2022-07-25T11:20:59;34.20;57.90
15690;DHT22;7945;48.816;11.506;2022-07-25T11:23:26;34.30;57.20
15690;DHT22;7945;48.816;11.506;2022-07-25T11:26:05;34.30;57.00
15690;DHT22;7945;48.816;11.506;2022-07-25T11:28:40;34.30;57.30
15690;DHT22;7945;48.816;11.506;2022-07-25T11:31:08;34.30;58.00
15690;DHT22;7945;48.816;11.506;2022-07-25T11:33:36;34.40;58.10
15690;DHT22;7945;48.816;11.506;2022-07-25T11:36:03;34.40;57.60
15690;DHT22;7945;48.816;11.506;2022-07-25T11:38:30;34.50;57.60
15690;DHT22;7945;48.816;11.506;2022-07-25T11:40:58;34.50;57.80
15690;DHT22;7945;48.816;11.506;2022-07-25T11:43:27;34.50;57.60
15690;DHT22;7945;48.816;11.506;2022-07-25T11:45:56;34.50;58.20
15690;DHT22;7945;48.816;11.506;2022-07-25T11:48:30;34.40;58.00
15690;DHT22;7945;48.816;11.506;2022-07-25T11:51:06;34.50;56.70
15690;DHT22;7945;48.816;11.506;2022-07-25T11:53:38;34.60;56.70
15690;DHT22;7945;48.816;11.506;2022-07-25T11:56:17;34.70;56.30
15690;DHT22;7945;48.816;11.506;2022-07-25T11:58:56;34.70;55.50
15690;DHT22;7945;48.816;11.506;2022-07-25T12:01:25;34.70;55.70
15690;DHT22;7945;48.816;11.506;2022-07-25T12:04:07;34.70;55.60
15690;DHT22;7945;48.816;11.506;2022-07-25T12:06:34;34.80;55.90
15690;DHT22;7945;48.816;11.506;2022-07-25T12:09:09;34.70;55.50
15690;DHT22;7945;48.816;11.506;2022-07-25T12:11:36;34.80;55.80
15690;DHT22;7945;48.816;11.506;2022-07-25T12:14:05;34.90;56.00
15690;DHT22;7945;48.816;11.506;2022-07-25T12:16:34;35.10;56.40
15690;DHT22;7945;48.816;11.506;2022-07-25T12:19:02;35.20;56.70
15690;DHT22;7945;48.816;11.506;2022-07-25T12:21:29;35.20;55.00
15690;DHT22;7945;48.816;11.506;2022-07-25T12:23:56;35.10;55.60
15690;DHT22;7945;48.816;11.506;2022-07-25T12:26:23;35.00;55.30
15690;DHT22;7945;48.816;11.506;2022-07-25T12:28:50;35.10;53.10
15690;DHT22;7945;48.816;11.506;2022-07-25T12:31:18;35.20;51.00
15690;DHT22;7945;48.816;11.506;2022-07-25T12:33:46;35.20;52.20
15690;DHT22;7945;48.816;11.506;2022-07-25T12:36:14;35.20;51.60
15690;DHT22;7945;48.816;11.506;2022-07-25T12:38:41;35.20;51.60
15690;DHT22;7945;48.816;11.506;2022-07-25T12:41:09;35.20;50.60
15690;DHT22;7945;48.816;11.506;2022-07-25T12:43:36;35.20;50.80
15690;DHT22;7945;48.816;11.506;2022-07-25T12:46:05;35.30;51.40
15690;DHT22;7945;48.816;11.506;2022-07-25T12:48:33;35.40;51.20
15690;DHT22;7945;48.816;11.506;2022-07-25T12:51:01;35.60;50.60
15690;DHT22;7945;48.816;11.506;2022-07-25T12:53:28;35.60;51.70
15690;DHT22;7945;48.816;11.506;2022-07-25T12:55:56;35.50;50.10
15690;DHT22;7945;48.816;11.506;2022-07-25T12:58:24;35.50;50.40
15690;DHT22;7945;48.816;11.506;2022-07-25T13:00:51;35.50;49.70
15690;DHT22;7945;48.816;11.506;2022-07-25T13:03:18;35.60;49.00
15690;DHT22;7945;48.816;11.506;2022-07-25T13:05:47;35.60;50.40
15690;DHT22;7945;48.816;11.506;2022-07-25T13:08:14;35.60;50.00
15690;DHT22;7945;48.816;11.506;2022-07-25T13:10:41;35.60;49.00
15690;DHT22;7945;48.816;11.506;2022-07-25T13:13:08;35.50;48.90
15690;DHT22;7945;48.816;11.506;2022-07-25T13:15:35;35.60;49.60
15690;DHT22;7945;48.816;11.506;2022-07-25T13:18:03;35.60;49.20
15690;DHT22;7945;48.816;11.506;2022-07-25T13:20:30;35.60;49.30
15690;DHT22;7945;48.816;11.506;2022-07-25T13:23:02;35.60;49.80
15690;DHT22;7945;48.816;11.506;2022-07-25T13:25:29;35.70;49.30
15690;DHT22;7945;48.816;11.506;2022-07-25T13:27:56;35.80;49.20
15690;DHT22;7945;48.816;11.506;2022-07-25T13:30:23;35.80;50.70
15690;DHT22;7945;48.816;11.506;2022-07-25T13:32:50;35.90;50.10
15690;DHT22;7945;48.816;11.506;2022-07-25T13:35:17;35.90;49.80
15690;DHT22;7945;48.816;11.506;2022-07-25T13:37:44;35.90;49.50
15690;DHT22;7945;48.816;11.506;2022-07-25T13:40:13;35.80;49.40
15690;DHT22;7945;48.816;11.506;2022-07-25T13:42:40;35.90;49.60
15690;DHT22;7945;48.816;11.506;2022-07-25T13:45:08;35.90;49.60
15690;DHT22;7945;48.816;11.506;2022-07-25T13:47:35;35.90;49.10
15690;DHT22;7945;48.816;11.506;2022-07-25T13:50:02;35.80;49.40
15690;DHT22;7945;48.816;11.506;2022-07-25T13:52:30;35.80;49.20
15690;DHT22;7945;48.816;11.506;2022-07-25T13:54:56;35.80;49.50
15690;DHT22;7945;48.816;11.506;2022-07-25T13:57:25;35.80;49.20
15690;DHT22;7945;48.816;11.506;2022-07-25T13:59:52;35.90;49.10
15690;DHT22;7945;48.816;11.506;2022-07-25T14:02:19;35.80;48.80
15690;DHT22;7945;48.816;11.506;2022-07-25T14:04:46;35.90;48.90
15690;DHT22;7945;48.816;11.506;2022-07-25T14:07:12;36.00;48.50
15690;DHT22;7945;48.816;11.506;2022-07-25T14:09:40;36.00;49.30
15690;DHT22;7945;48.816;11.506;2022-07-25T14:12:06;36.20;49.50
15690;DHT22;7945;48.816;11.506;2022-07-25T14:14:35;36.20;48.90
15690;DHT22;7945;48.816;11.506;2022-07-25T14:17:02;36.30;48.80
15690;DHT22;7945;48.816;11.506;2022-07-25T14:19:28;36.40;49.00
15690;DHT22;7945;48.816;11.506;2022-07-25T14:21:55;36.40;48.10
15690;DHT22;7945;48.816;11.506;2022-07-25T14:24:22;36.30;48.90
15690;DHT22;7945;48.816;11.506;2022-07-25T14:26:49;36.30;48.90
15690;DHT22;7945;48.816;11.506;2022-07-25T14:29:18;36.30;48.40
15690;DHT22;7945;48.816;11.506;2022-07-25T14:31:47;36.30;48.00
15690;DHT22;7945;48.816;11.506;2022-07-25T14:34:14;36.20;48.00
15690;DHT22;7945;48.816;11.506;2022-07-25T14:36:41;36.20;47.90
15690;DHT22;7945;48.816;11.506;2022-07-25T14:39:09;36.30;47.80
15690;DHT22;7945;48.816;11.506;2022-07-25T14:41:36;36.30;47.60
15690;DHT22;7945;48.816;11.506;2022-07-25T14:44:03;36.30;47.70
15690;DHT22;7945;48.816;11.506;2022-07-25T14:46:29;36.30;47.10
15690;DHT22;7945;48.816;11.506;2022-07-25T14:48:58;36.30;48.40
15690;DHT22;7945;48.816;11.506;2022-07-25T14:51:25;36.30;47.90
15690;DHT22;7945;48.816;11.506;2022-07-25T14:53:53;36.40;47.60
15690;DHT22;7945;48.816;11.506;2022-07-25T14:56:20;36.40;47.40
15690;DHT22;7945;48.816;11.506;2022-07-25T14:58:46;36.40;47.30
15690;DHT22;7945;48.816;11.506;2022-07-25T15:01:13;36.40;47.50
15690;DHT22;7945;48.816;11.506;2022-07-25T15:03:42;36.40;47.40
15690;DHT22;7945;48.816;11.506;2022-07-25T15:06:11;36.50;47.80
15690;DHT22;7945;48.816;11.506;2022-07-25T15:08:38;36.50;47.50
15690;DHT22;7945;48.816;11.506;2022-07-25T15:11:05;36.50;47.20
15690;DHT22;7945;48.816;11.506;2022-07-25T15:13:33;36.50;46.10
15690;DHT22;7945;48.816;11.506;2022-07-25T15:16:01;36.40;45.90
15690;DHT22;7945;48.816;11.506;2022-07-25T15:18:30;36.40;46.90
15690;DHT22;7945;48.816;11.506;2022-07-25T15:20:57;36.30;46.00
15690;DHT22;7945;48.816;11.506;2022-07-25T15:23:25;36.30;45.10
15690;DHT22;7945;48.816;11.506;2022-07-25T15:25:52;36.30;46.50
15690;DHT22;7945;48.816;11.506;2022-07-25T15:28:20;36.30;45.40
15690;DHT22;7945;48.816;11.506;2022-07-25T15:30:47;36.30;45.10
15690;DHT22;7945;48.816;11.506;2022-07-25T15:33:15;36.20;46.00
15690;DHT22;7945;48.816;11.506;2022-07-25T15:35:43;36.20;45.60
15690;DHT22;7945;48.816;11.506;2022-07-25T15:38:11;36.20;45.90